Aérodrome :
LOGIN :

S'inscrire | Disclaimer

   EN    FR    IT 

 










Légende :    VFR   VFR Marginal   IFR   IFR Intensif   IFR Très Intensif
Visi : 
Plafond : 
>= 8 km
>= 3000ft
5 à 8 km
1000 à 3000 ft
1500m à 5 km
500 à 1000 ft
800 à 1500m
200 à 500 ft
< 800m
< 200 ft
Symboles :   Orages  Brouillard  Fortes neiges  Fortes précipitations  Vent > 20 kt
SIGMETs :   Divers  Orages  Givrage  Turbulence  Onde Orograph.  Cendres Volcan.







- Altitude de l'aérodrome : 461 ft
- Code IATA : WIE


ETOU - Wiesbaden Army

DERNIER METAR :
  • 161456Z AUTO 27015G23KT 9999 SCT042 BKN055 07/01 A2941 RMK AO2 PK WND 27028/19 SLP964 T00730005 52012

METARs EXPIRÉS :
  • 161356Z AUTO 27020G27KT 9999 SCT049 SCT060 08/00 A2939 RMK AO2 PK WND 28029/11 SLP958 T00830003
  • 161256Z AUTO 29019G32KT 9999 SCT045 09/00 A2938 RMK AO2 PK WND 29032/51 SLP954 T00860001 $

TAF AMD TAF ETOU
Valide du 16 à 13h jusqu'au 17 à 17h UTC


161346Z 1613/1717 28015G25KT 8000 -SHRA SCT040 BKN050 610507 510003 QNH2935INS
TEMPO 1613/1615 28025G35KT
BECMG 1614/1615 25012G18KT 8000 -SHRA SCT050 BKN060 610606 QNH2940INS
TEMPO 1623/1702 5000 -SHRASN
BECMG 1701/1702 26012KT 9999 NSW SCT080 BKN090 610901 QNH2942INS
BECMG 1708/1709 26015G20KT 9999 SCT025 BKN040 610406 510003 QNH2946INS
BECMG 1712/1713 27020G35KT 9999 SCT020 BKN035 610406 510003 QNH2950INS TX09/1613Z TN01/1700Z
Pas de NOTAMs connus pour ce terrain.
1 SIGMET publié pour la FIR Langen (EDGG) :
 
Turbulence forte
EDGG SIGMET 7 VALID 161400/161600 EDZF
EDGG LANGEN FIR SEV TURB FCST S OF N4900 SFC/FL060 STNR WKN=



MET'MAP, la Météo Aéronautique d'un coup d'oeil ! - Copyright ORBIFLY Décembre 2007 - Disclaimer

ORBIFLY MET'MAP TEAM :

Programmation & Développement : Alexandra Zaïnal
Conception & Développement : Baudouin d'Aumeries
Co-Programmation & Développement : Marc-Olivier Méhu
Soutien technique & logistique : Manuel Goepfert

Contact : metmap@orbifly.com




SOURCES & CREDITS :

   NOAA